LFPG 220230Z 24016KT 9999 FEW024 10/06 Q1015 NOSIG

ElémentsDécodage
LFPG Station météo située sur l'aérodrome de PARIS Charles-de-Gaulle
220230Z émis le 22 du mois à 02h30 UTC
24016KT vent du 240°, 16 noeuds
9999 visibilité horizontale supérieure à 10 Km
FEW024 nuages rares (1/8 à 2/8) à 2400 pieds
10/06 température 10°C, point de rosée 06°C
 soit une humidité relative de 76%
Q1015 la pression au niveau de la mer (QNH) est de 1015 hPa
NOSIG Pas de changement significatif prévu au cours des deux heures suivant l'heure de l'observation